sensor_id;sensor_type;location;lat;lon;timestamp;temperature;humidity
76102;SHT30;64830;46.910;6.354;2023-03-26T00:00:57;7.56;77.75
76102;SHT30;64830;46.910;6.354;2023-03-26T00:03:22;7.55;77.90
76102;SHT30;64830;46.910;6.354;2023-03-26T00:05:48;7.54;77.74
76102;SHT30;64830;46.910;6.354;2023-03-26T00:08:15;7.52;77.81
76102;SHT30;64830;46.910;6.354;2023-03-26T00:10:42;7.52;78.00
76102;SHT30;64830;46.910;6.354;2023-03-26T00:13:08;7.49;78.08
76102;SHT30;64830;46.910;6.354;2023-03-26T00:15:35;7.48;78.14
76102;SHT30;64830;46.910;6.354;2023-03-26T00:18:02;7.48;78.11
76102;SHT30;64830;46.910;6.354;2023-03-26T00:20:29;7.49;78.21
76102;SHT30;64830;46.910;6.354;2023-03-26T00:22:57;7.49;78.16
76102;SHT30;64830;46.910;6.354;2023-03-26T00:25:25;7.48;78.35
76102;SHT30;64830;46.910;6.354;2023-03-26T00:27:51;7.45;78.37
76102;SHT30;64830;46.910;6.354;2023-03-26T00:30:16;7.47;78.40
76102;SHT30;64830;46.910;6.354;2023-03-26T00:32:42;7.44;78.52
76102;SHT30;64830;46.910;6.354;2023-03-26T00:35:08;7.42;78.60
76102;SHT30;64830;46.910;6.354;2023-03-26T00:37:35;7.45;78.75
76102;SHT30;64830;46.910;6.354;2023-03-26T00:40:00;7.42;78.82
76102;SHT30;64830;46.910;6.354;2023-03-26T00:42:36;7.42;79.04
76102;SHT30;64830;46.910;6.354;2023-03-26T00:45:04;7.44;78.83
76102;SHT30;64830;46.910;6.354;2023-03-26T00:47:30;7.45;78.93
76102;SHT30;64830;46.910;6.354;2023-03-26T00:49:55;7.45;79.03
76102;SHT30;64830;46.910;6.354;2023-03-26T00:52:21;7.45;79.11
76102;SHT30;64830;46.910;6.354;2023-03-26T00:54:50;7.44;79.43
76102;SHT30;64830;46.910;6.354;2023-03-26T00:57:16;7.40;79.41
76102;SHT30;64830;46.910;6.354;2023-03-26T00:59:42;7.36;79.23
76102;SHT30;64830;46.910;6.354;2023-03-26T01:02:11;7.38;79.39
76102;SHT30;64830;46.910;6.354;2023-03-26T01:04:44;7.35;79.35
76102;SHT30;64830;46.910;6.354;2023-03-26T01:07:14;7.34;79.36
76102;SHT30;64830;46.910;6.354;2023-03-26T01:09:48;7.31;79.28
76102;SHT30;64830;46.910;6.354;2023-03-26T01:12:17;7.32;79.47
76102;SHT30;64830;46.910;6.354;2023-03-26T01:14:45;7.34;79.53
76102;SHT30;64830;46.910;6.354;2023-03-26T01:17:12;7.34;79.40
76102;SHT30;64830;46.910;6.354;2023-03-26T01:19:54;7.30;79.45
76102;SHT30;64830;46.910;6.354;2023-03-26T01:22:25;7.30;79.52
76102;SHT30;64830;46.910;6.354;2023-03-26T01:24:51;7.25;79.57
76102;SHT30;64830;46.910;6.354;2023-03-26T01:29:53;7.23;79.63
76102;SHT30;64830;46.910;6.354;2023-03-26T01:32:49;7.21;79.52
76102;SHT30;64830;46.910;6.354;2023-03-26T01:38:42;7.25;79.32
76102;SHT30;64830;46.910;6.354;2023-03-26T01:41:29;7.21;79.56
76102;SHT30;64830;46.910;6.354;2023-03-26T01:46:31;7.14;79.57
76102;SHT30;64830;46.910;6.354;2023-03-26T01:49:03;7.13;79.86
76102;SHT30;64830;46.910;6.354;2023-03-26T01:51:33;7.10;79.97
76102;SHT30;64830;46.910;6.354;2023-03-26T01:54:05;7.11;79.92
76102;SHT30;64830;46.910;6.354;2023-03-26T01:56:43;7.06;79.98
76102;SHT30;64830;46.910;6.354;2023-03-26T02:04:51;7.04;80.08
76102;SHT30;64830;46.910;6.354;2023-03-26T02:09:58;7.04;79.92
76102;SHT30;64830;46.910;6.354;2023-03-26T02:12:25;7.06;79.95
76102;SHT30;64830;46.910;6.354;2023-03-26T02:14:51;7.08;79.91
76102;SHT30;64830;46.910;6.354;2023-03-26T02:17:17;7.11;79.83
76102;SHT30;64830;46.910;6.354;2023-03-26T02:19:43;7.13;79.83
76102;SHT30;64830;46.910;6.354;2023-03-26T02:22:10;7.10;79.63
76102;SHT30;64830;46.910;6.354;2023-03-26T02:24:42;7.11;79.81
76102;SHT30;64830;46.910;6.354;2023-03-26T02:27:08;7.17;79.70
76102;SHT30;64830;46.910;6.354;2023-03-26T02:29:37;7.14;79.64
76102;SHT30;64830;46.910;6.354;2023-03-26T02:32:05;7.15;79.82
76102;SHT30;64830;46.910;6.354;2023-03-26T02:34:31;7.14;79.77
76102;SHT30;64830;46.910;6.354;2023-03-26T02:36:57;7.14;79.73
76102;SHT30;64830;46.910;6.354;2023-03-26T02:39:23;7.17;79.60
76102;SHT30;64830;46.910;6.354;2023-03-26T02:41:48;7.17;79.54
76102;SHT30;64830;46.910;6.354;2023-03-26T02:44:14;7.18;79.13
76102;SHT30;64830;46.910;6.354;2023-03-26T02:46:39;7.20;79.39
76102;SHT30;64830;46.910;6.354;2023-03-26T02:49:05;7.21;79.32
76102;SHT30;64830;46.910;6.354;2023-03-26T02:51:30;7.23;79.33
76102;SHT30;64830;46.910;6.354;2023-03-26T02:53:59;7.21;78.90
76102;SHT30;64830;46.910;6.354;2023-03-26T02:56:26;7.28;78.53
76102;SHT30;64830;46.910;6.354;2023-03-26T02:58:51;7.30;78.03
76102;SHT30;64830;46.910;6.354;2023-03-26T03:01:16;7.32;78.25
76102;SHT30;64830;46.910;6.354;2023-03-26T03:03:42;7.34;78.19
76102;SHT30;64830;46.910;6.354;2023-03-26T03:06:08;7.38;77.53
76102;SHT30;64830;46.910;6.354;2023-03-26T03:08:33;7.42;77.90
76102;SHT30;64830;46.910;6.354;2023-03-26T03:11:10;7.40;77.46
76102;SHT30;64830;46.910;6.354;2023-03-26T03:13:35;7.45;77.26
76102;SHT30;64830;46.910;6.354;2023-03-26T03:16:01;7.47;77.47
76102;SHT30;64830;46.910;6.354;2023-03-26T03:18:26;7.49;76.98
76102;SHT30;64830;46.910;6.354;2023-03-26T03:20:52;7.49;77.39
76102;SHT30;64830;46.910;6.354;2023-03-26T03:23:18;7.55;77.06
76102;SHT30;64830;46.910;6.354;2023-03-26T03:25:43;7.59;77.44
76102;SHT30;64830;46.910;6.354;2023-03-26T03:28:09;7.58;77.74
76102;SHT30;64830;46.910;6.354;2023-03-26T03:30:35;7.56;77.86
76102;SHT30;64830;46.910;6.354;2023-03-26T03:33:01;7.56;77.99
76102;SHT30;64830;46.910;6.354;2023-03-26T03:35:27;7.55;78.23
76102;SHT30;64830;46.910;6.354;2023-03-26T03:37:55;7.54;78.05
76102;SHT30;64830;46.910;6.354;2023-03-26T03:40:20;7.56;78.15
76102;SHT30;64830;46.910;6.354;2023-03-26T03:42:46;7.56;78.20
76102;SHT30;64830;46.910;6.354;2023-03-26T03:45:12;7.52;78.22
76102;SHT30;64830;46.910;6.354;2023-03-26T03:47:38;7.54;77.86
76102;SHT30;64830;46.910;6.354;2023-03-26T03:50:04;7.56;78.14
76102;SHT30;64830;46.910;6.354;2023-03-26T03:52:30;7.55;77.84
76102;SHT30;64830;46.910;6.354;2023-03-26T03:54:56;7.55;78.06
76102;SHT30;64830;46.910;6.354;2023-03-26T03:57:25;7.56;78.12
76102;SHT30;64830;46.910;6.354;2023-03-26T03:59:51;7.58;78.34
76102;SHT30;64830;46.910;6.354;2023-03-26T04:02:17;7.59;78.21
76102;SHT30;64830;46.910;6.354;2023-03-26T04:04:51;7.61;77.96
76102;SHT30;64830;46.910;6.354;2023-03-26T04:07:16;7.63;77.85
76102;SHT30;64830;46.910;6.354;2023-03-26T04:09:42;7.63;77.88
76102;SHT30;64830;46.910;6.354;2023-03-26T04:12:07;7.68;77.62
76102;SHT30;64830;46.910;6.354;2023-03-26T04:14:32;7.69;77.59
76102;SHT30;64830;46.910;6.354;2023-03-26T04:16:58;7.70;77.13
76102;SHT30;64830;46.910;6.354;2023-03-26T04:19:23;7.75;77.17
76102;SHT30;64830;46.910;6.354;2023-03-26T04:21:48;7.76;77.30
76102;SHT30;64830;46.910;6.354;2023-03-26T04:24:14;7.80;77.18
76102;SHT30;64830;46.910;6.354;2023-03-26T04:26:39;7.82;77.02
76102;SHT30;64830;46.910;6.354;2023-03-26T04:29:07;7.85;76.53
76102;SHT30;64830;46.910;6.354;2023-03-26T04:31:36;7.90;76.73
76102;SHT30;64830;46.910;6.354;2023-03-26T04:34:23;7.91;76.70
76102;SHT30;64830;46.910;6.354;2023-03-26T04:36:49;7.94;76.61
76102;SHT30;64830;46.910;6.354;2023-03-26T04:39:19;7.98;76.62
76102;SHT30;64830;46.910;6.354;2023-03-26T04:41:46;8.00;76.66
76102;SHT30;64830;46.910;6.354;2023-03-26T04:44:12;8.03;76.72
76102;SHT30;64830;46.910;6.354;2023-03-26T04:46:41;8.05;76.16
76102;SHT30;64830;46.910;6.354;2023-03-26T04:49:08;8.05;76.72
76102;SHT30;64830;46.910;6.354;2023-03-26T04:51:37;8.10;76.43
76102;SHT30;64830;46.910;6.354;2023-03-26T04:54:05;8.13;76.48
76102;SHT30;64830;46.910;6.354;2023-03-26T04:59:21;8.20;76.60
76102;SHT30;64830;46.910;6.354;2023-03-26T05:01:51;8.18;76.52
76102;SHT30;64830;46.910;6.354;2023-03-26T05:04:17;8.22;76.32
76102;SHT30;64830;46.910;6.354;2023-03-26T05:06:42;8.22;76.45
76102;SHT30;64830;46.910;6.354;2023-03-26T05:09:08;8.24;77.25
76102;SHT30;64830;46.910;6.354;2023-03-26T05:11:35;8.22;77.54
76102;SHT30;64830;46.910;6.354;2023-03-26T05:14:00;8.22;77.81
76102;SHT30;64830;46.910;6.354;2023-03-26T05:16:27;8.20;77.70
76102;SHT30;64830;46.910;6.354;2023-03-26T05:18:52;8.17;77.96
76102;SHT30;64830;46.910;6.354;2023-03-26T05:21:18;8.15;77.97
76102;SHT30;64830;46.910;6.354;2023-03-26T05:23:44;8.13;78.02
76102;SHT30;64830;46.910;6.354;2023-03-26T05:26:09;8.11;78.18
76102;SHT30;64830;46.910;6.354;2023-03-26T05:28:35;8.08;78.30
76102;SHT30;64830;46.910;6.354;2023-03-26T05:31:01;8.08;78.87
76102;SHT30;64830;46.910;6.354;2023-03-26T05:33:27;8.07;79.03
76102;SHT30;64830;46.910;6.354;2023-03-26T05:36:00;8.07;78.78
76102;SHT30;64830;46.910;6.354;2023-03-26T05:38:28;8.04;79.20
76102;SHT30;64830;46.910;6.354;2023-03-26T05:40:58;8.03;79.20
76102;SHT30;64830;46.910;6.354;2023-03-26T05:43:23;8.01;79.11
76102;SHT30;64830;46.910;6.354;2023-03-26T05:45:49;8.03;79.48
76102;SHT30;64830;46.910;6.354;2023-03-26T05:48:14;8.01;79.07
76102;SHT30;64830;46.910;6.354;2023-03-26T05:50:40;8.04;79.19
76102;SHT30;64830;46.910;6.354;2023-03-26T05:53:05;8.05;79.33
76102;SHT30;64830;46.910;6.354;2023-03-26T05:55:31;8.13;79.61
76102;SHT30;64830;46.910;6.354;2023-03-26T05:57:57;8.13;79.36
76102;SHT30;64830;46.910;6.354;2023-03-26T06:00:23;8.15;79.51
76102;SHT30;64830;46.910;6.354;2023-03-26T06:02:49;8.17;79.58
76102;SHT30;64830;46.910;6.354;2023-03-26T06:05:15;8.20;79.34
76102;SHT30;64830;46.910;6.354;2023-03-26T06:07:40;8.20;79.25
76102;SHT30;64830;46.910;6.354;2023-03-26T06:10:06;8.21;79.20
76102;SHT30;64830;46.910;6.354;2023-03-26T06:12:31;8.21;78.60
76102;SHT30;64830;46.910;6.354;2023-03-26T06:14:57;8.24;78.67
76102;SHT30;64830;46.910;6.354;2023-03-26T06:17:22;8.24;78.60
76102;SHT30;64830;46.910;6.354;2023-03-26T06:19:48;8.30;78.55
76102;SHT30;64830;46.910;6.354;2023-03-26T06:22:13;8.27;78.32
76102;SHT30;64830;46.910;6.354;2023-03-26T06:24:39;8.27;78.18
76102;SHT30;64830;46.910;6.354;2023-03-26T06:27:05;8.30;77.88
76102;SHT30;64830;46.910;6.354;2023-03-26T06:29:30;8.32;77.81
76102;SHT30;64830;46.910;6.354;2023-03-26T06:31:56;8.32;77.92
76102;SHT30;64830;46.910;6.354;2023-03-26T06:34:21;8.34;77.27
76102;SHT30;64830;46.910;6.354;2023-03-26T06:36:46;8.34;77.64
76102;SHT30;64830;46.910;6.354;2023-03-26T06:39:13;8.39;77.38
76102;SHT30;64830;46.910;6.354;2023-03-26T06:41:39;8.42;77.17
76102;SHT30;64830;46.910;6.354;2023-03-26T06:44:05;8.45;77.04
76102;SHT30;64830;46.910;6.354;2023-03-26T06:46:30;8.46;76.80
76102;SHT30;64830;46.910;6.354;2023-03-26T06:48:56;8.48;76.83
76102;SHT30;64830;46.910;6.354;2023-03-26T06:51:21;8.46;76.30
76102;SHT30;64830;46.910;6.354;2023-03-26T06:53:46;8.45;79.03
76102;SHT30;64830;46.910;6.354;2023-03-26T06:56:12;8.46;78.88
76102;SHT30;64830;46.910;6.354;2023-03-26T06:58:37;8.41;76.79
76102;SHT30;64830;46.910;6.354;2023-03-26T07:01:03;8.41;77.50
76102;SHT30;64830;46.910;6.354;2023-03-26T07:03:28;8.39;77.53
76102;SHT30;64830;46.910;6.354;2023-03-26T07:05:54;8.42;77.84
76102;SHT30;64830;46.910;6.354;2023-03-26T07:08:19;8.42;78.20
76102;SHT30;64830;46.910;6.354;2023-03-26T07:10:45;8.42;78.01
76102;SHT30;64830;46.910;6.354;2023-03-26T07:13:11;8.41;78.18
76102;SHT30;64830;46.910;6.354;2023-03-26T07:15:36;8.39;78.23
76102;SHT30;64830;46.910;6.354;2023-03-26T07:18:01;8.38;78.10
76102;SHT30;64830;46.910;6.354;2023-03-26T07:20:27;8.41;78.59
76102;SHT30;64830;46.910;6.354;2023-03-26T07:22:53;8.45;77.96
76102;SHT30;64830;46.910;6.354;2023-03-26T07:25:19;8.44;77.87
76102;SHT30;64830;46.910;6.354;2023-03-26T07:27:54;8.44;77.63
76102;SHT30;64830;46.910;6.354;2023-03-26T07:31:09;8.46;78.07
76102;SHT30;64830;46.910;6.354;2023-03-26T07:33:19;8.49;77.36
76102;SHT30;64830;46.910;6.354;2023-03-26T07:36:13;8.46;76.67
76102;SHT30;64830;46.910;6.354;2023-03-26T07:39:04;8.45;76.99
76102;SHT30;64830;46.910;6.354;2023-03-26T07:45:29;8.31;77.18
76102;SHT30;64830;46.910;6.354;2023-03-26T07:47:32;8.21;77.42
76102;SHT30;64830;46.910;6.354;2023-03-26T07:49:58;8.05;77.52
76102;SHT30;64830;46.910;6.354;2023-03-26T07:52:25;7.98;77.99
76102;SHT30;64830;46.910;6.354;2023-03-26T07:54:51;7.87;78.21
76102;SHT30;64830;46.910;6.354;2023-03-26T07:57:35;7.86;78.97
76102;SHT30;64830;46.910;6.354;2023-03-26T08:00:10;7.77;79.71
76102;SHT30;64830;46.910;6.354;2023-03-26T08:05:33;7.86;79.42
76102;SHT30;64830;46.910;6.354;2023-03-26T08:08:18;7.85;79.78
76102;SHT30;64830;46.910;6.354;2023-03-26T08:16:11;7.89;80.38
76102;SHT30;64830;46.910;6.354;2023-03-26T08:21:34;8.00;80.36
76102;SHT30;64830;46.910;6.354;2023-03-26T08:24:19;8.05;80.94
76102;SHT30;64830;46.910;6.354;2023-03-26T08:26:56;8.07;80.43
76102;SHT30;64830;46.910;6.354;2023-03-26T08:29:46;8.14;81.15
76102;SHT30;64830;46.910;6.354;2023-03-26T08:32:17;8.18;80.66
76102;SHT30;64830;46.910;6.354;2023-03-26T08:34:44;8.13;79.92
76102;SHT30;64830;46.910;6.354;2023-03-26T08:37:09;8.15;80.18
76102;SHT30;64830;46.910;6.354;2023-03-26T08:39:36;8.08;79.72
76102;SHT30;64830;46.910;6.354;2023-03-26T09:00:39;8.39;79.09
76102;SHT30;64830;46.910;6.354;2023-03-26T09:15:20;8.76;75.89
76102;SHT30;64830;46.910;6.354;2023-03-26T09:26:44;9.14;74.44
76102;SHT30;64830;46.910;6.354;2023-03-26T09:29:35;9.20;72.91
76102;SHT30;64830;46.910;6.354;2023-03-26T09:46:24;9.25;70.36
76102;SHT30;64830;46.910;6.354;2023-03-26T09:49:15;9.17;66.24
76102;SHT30;64830;46.910;6.354;2023-03-26T09:57:42;8.94;69.19
76102;SHT30;64830;46.910;6.354;2023-03-26T10:28:47;9.20;69.12
76102;SHT30;64830;46.910;6.354;2023-03-26T10:40:04;8.94;64.94
76102;SHT30;64830;46.910;6.354;2023-03-26T10:51:44;9.89;65.25
76102;SHT30;64830;46.910;6.354;2023-03-26T10:54:28;10.00;64.42
76102;SHT30;64830;46.910;6.354;2023-03-26T10:56:56;10.00;64.13
76102;SHT30;64830;46.910;6.354;2023-03-26T10:59:24;9.90;64.41
76102;SHT30;64830;46.910;6.354;2023-03-26T11:04:34;10.18;64.60
76102;SHT30;64830;46.910;6.354;2023-03-26T11:10:23;10.36;61.83
76102;SHT30;64830;46.910;6.354;2023-03-26T11:12:56;10.27;63.47
76102;SHT30;64830;46.910;6.354;2023-03-26T11:15:32;10.25;63.86
76102;SHT30;64830;46.910;6.354;2023-03-26T11:20:44;10.49;62.10
76102;SHT30;64830;46.910;6.354;2023-03-26T11:34:42;10.87;61.63
76102;SHT30;64830;46.910;6.354;2023-03-26T11:37:17;11.00;60.30
76102;SHT30;64830;46.910;6.354;2023-03-26T11:39:55;11.04;58.15
76102;SHT30;64830;46.910;6.354;2023-03-26T11:42:23;11.04;59.61
76102;SHT30;64830;46.910;6.354;2023-03-26T11:45:03;11.00;60.10
76102;SHT30;64830;46.910;6.354;2023-03-26T11:47:41;10.94;57.83
76102;SHT30;64830;46.910;6.354;2023-03-26T11:50:15;10.93;58.61
76102;SHT30;64830;46.910;6.354;2023-03-26T11:52:43;11.06;59.86
76102;SHT30;64830;46.910;6.354;2023-03-26T11:55:11;11.18;58.02
76102;SHT30;64830;46.910;6.354;2023-03-26T11:57:40;11.39;56.50
76102;SHT30;64830;46.910;6.354;2023-03-26T12:00:14;11.47;56.24
76102;SHT30;64830;46.910;6.354;2023-03-26T12:02:44;11.65;58.45
76102;SHT30;64830;46.910;6.354;2023-03-26T12:05:21;11.77;56.30
76102;SHT30;64830;46.910;6.354;2023-03-26T12:07:57;11.87;56.40
76102;SHT30;64830;46.910;6.354;2023-03-26T12:10:39;11.72;54.89
76102;SHT30;64830;46.910;6.354;2023-03-26T12:13:33;11.34;53.60
76102;SHT30;64830;46.910;6.354;2023-03-26T12:16:11;10.83;56.89
76102;SHT30;64830;46.910;6.354;2023-03-26T12:18:39;10.46;59.59
76102;SHT30;64830;46.910;6.354;2023-03-26T12:21:14;10.07;61.43
76102;SHT30;64830;46.910;6.354;2023-03-26T12:24:00;9.56;64.72
76102;SHT30;64830;46.910;6.354;2023-03-26T12:29:30;8.03;91.22
76102;SHT30;64830;46.910;6.354;2023-03-26T12:32:15;7.08;91.98
76102;SHT30;64830;46.910;6.354;2023-03-26T12:34:42;6.72;77.26
76102;SHT30;64830;46.910;6.354;2023-03-26T12:37:46;6.55;78.60
76102;SHT30;64830;46.910;6.354;2023-03-26T12:40:38;6.44;77.21
76102;SHT30;64830;46.910;6.354;2023-03-26T12:43:20;6.55;77.70
76102;SHT30;64830;46.910;6.354;2023-03-26T12:45:50;6.67;76.92
76102;SHT30;64830;46.910;6.354;2023-03-26T12:48:18;6.72;77.32
76102;SHT30;64830;46.910;6.354;2023-03-26T12:53:43;7.15;78.46
76102;SHT30;64830;46.910;6.354;2023-03-26T12:56:29;7.36;78.41
76102;SHT30;64830;46.910;6.354;2023-03-26T12:59:39;7.51;78.85
76102;SHT30;64830;46.910;6.354;2023-03-26T13:02:34;7.59;78.60
76102;SHT30;64830;46.910;6.354;2023-03-26T13:08:13;7.87;79.02
76102;SHT30;64830;46.910;6.354;2023-03-26T13:13:45;7.89;77.11
76102;SHT30;64830;46.910;6.354;2023-03-26T13:16:35;7.90;75.68
76102;SHT30;64830;46.910;6.354;2023-03-26T13:19:20;7.86;75.58
76102;SHT30;64830;46.910;6.354;2023-03-26T13:36:17;7.90;74.09
76102;SHT30;64830;46.910;6.354;2023-03-26T13:44:29;8.15;73.20
76102;SHT30;64830;46.910;6.354;2023-03-26T13:47:03;8.27;73.20
76102;SHT30;64830;46.910;6.354;2023-03-26T13:49:38;8.28;71.11
76102;SHT30;64830;46.910;6.354;2023-03-26T13:52:32;8.39;72.29
76102;SHT30;64830;46.910;6.354;2023-03-26T13:55:27;8.41;71.89
76102;SHT30;64830;46.910;6.354;2023-03-26T13:58:16;8.44;72.76
76102;SHT30;64830;46.910;6.354;2023-03-26T14:00:57;8.56;72.20
76102;SHT30;64830;46.910;6.354;2023-03-26T14:04:00;8.48;71.73
76102;SHT30;64830;46.910;6.354;2023-03-26T14:06:44;8.59;69.99
76102;SHT30;64830;46.910;6.354;2023-03-26T14:20:08;8.62;71.20
76102;SHT30;64830;46.910;6.354;2023-03-26T14:23:10;8.69;69.84
76102;SHT30;64830;46.910;6.354;2023-03-26T14:25:53;8.73;68.36
76102;SHT30;64830;46.910;6.354;2023-03-26T14:28:47;8.75;69.16
76102;SHT30;64830;46.910;6.354;2023-03-26T14:47:28;9.12;66.32
76102;SHT30;64830;46.910;6.354;2023-03-26T14:53:12;9.24;65.14
76102;SHT30;64830;46.910;6.354;2023-03-26T15:12:49;8.72;68.56
76102;SHT30;64830;46.910;6.354;2023-03-26T15:24:28;9.52;66.05
76102;SHT30;64830;46.910;6.354;2023-03-26T15:30:25;9.48;62.13
76102;SHT30;64830;46.910;6.354;2023-03-26T15:33:06;9.43;62.24
76102;SHT30;64830;46.910;6.354;2023-03-26T15:38:40;9.36;63.91
76102;SHT30;64830;46.910;6.354;2023-03-26T15:41:40;9.27;61.98
76102;SHT30;64830;46.910;6.354;2023-03-26T15:44:36;9.25;63.51
76102;SHT30;64830;46.910;6.354;2023-03-26T15:47:40;9.39;63.28
76102;SHT30;64830;46.910;6.354;2023-03-26T16:11:46;13.19;51.97
76102;SHT30;64830;46.910;6.354;2023-03-26T16:21:54;17.50;44.77
76102;SHT30;64830;46.910;6.354;2023-03-26T16:24:45;17.57;40.59
76102;SHT30;64830;46.910;6.354;2023-03-26T16:32:32;17.38;43.98
76102;SHT30;64830;46.910;6.354;2023-03-26T16:35:40;18.02;41.29
76102;SHT30;64830;46.910;6.354;2023-03-26T16:38:13;17.24;40.07
76102;SHT30;64830;46.910;6.354;2023-03-26T16:40:53;16.04;40.22
76102;SHT30;64830;46.910;6.354;2023-03-26T16:43:37;14.95;43.36
76102;SHT30;64830;46.910;6.354;2023-03-26T16:46:17;16.38;39.59
76102;SHT30;64830;46.910;6.354;2023-03-26T16:48:57;17.76;37.76
76102;SHT30;64830;46.910;6.354;2023-03-26T16:55:10;20.30;38.25
76102;SHT30;64830;46.910;6.354;2023-03-26T17:00:40;19.69;34.76
76102;SHT30;64830;46.910;6.354;2023-03-26T17:03:23;18.35;37.54
76102;SHT30;64830;46.910;6.354;2023-03-26T17:16:38;13.41;45.06
76102;SHT30;64830;46.910;6.354;2023-03-26T17:19:23;12.57;47.45
76102;SHT30;64830;46.910;6.354;2023-03-26T17:22:03;11.79;49.00
76102;SHT30;64830;46.910;6.354;2023-03-26T17:25:17;11.29;51.21
76102;SHT30;64830;46.910;6.354;2023-03-26T17:33:26;10.29;53.72
76102;SHT30;64830;46.910;6.354;2023-03-26T17:41:01;9.89;55.47
76102;SHT30;64830;46.910;6.354;2023-03-26T17:46:21;9.72;55.94
76102;SHT30;64830;46.910;6.354;2023-03-26T17:51:43;9.69;57.12
76102;SHT30;64830;46.910;6.354;2023-03-26T17:54:37;9.65;56.58
76102;SHT30;64830;46.910;6.354;2023-03-26T17:57:12;9.63;57.51
76102;SHT30;64830;46.910;6.354;2023-03-26T17:59:40;9.56;57.06
76102;SHT30;64830;46.910;6.354;2023-03-26T18:02:13;9.53;57.75
76102;SHT30;64830;46.910;6.354;2023-03-26T18:04:42;9.50;59.11
76102;SHT30;64830;46.910;6.354;2023-03-26T18:10:15;8.62;65.81
76102;SHT30;64830;46.910;6.354;2023-03-26T18:16:12;7.97;65.00
76102;SHT30;64830;46.910;6.354;2023-03-26T18:18:53;7.87;66.41
76102;SHT30;64830;46.910;6.354;2023-03-26T18:21:36;7.79;67.61
76102;SHT30;64830;46.910;6.354;2023-03-26T18:24:04;7.63;66.35
76102;SHT30;64830;46.910;6.354;2023-03-26T18:26:37;7.61;66.62
76102;SHT30;64830;46.910;6.354;2023-03-26T18:29:23;7.62;66.78
76102;SHT30;64830;46.910;6.354;2023-03-26T18:32:00;7.62;67.42
76102;SHT30;64830;46.910;6.354;2023-03-26T18:34:31;7.58;66.69
76102;SHT30;64830;46.910;6.354;2023-03-26T18:37:20;7.58;67.10
76102;SHT30;64830;46.910;6.354;2023-03-26T18:42:37;7.62;67.61
76102;SHT30;64830;46.910;6.354;2023-03-26T18:45:11;7.65;67.44
76102;SHT30;64830;46.910;6.354;2023-03-26T18:47:39;7.65;68.10
76102;SHT30;64830;46.910;6.354;2023-03-26T18:50:05;7.63;68.16
76102;SHT30;64830;46.910;6.354;2023-03-26T18:52:32;7.65;68.40
76102;SHT30;64830;46.910;6.354;2023-03-26T18:54:58;7.62;68.70
76102;SHT30;64830;46.910;6.354;2023-03-26T18:57:26;7.61;68.34
76102;SHT30;64830;46.910;6.354;2023-03-26T18:59:54;7.58;68.70
76102;SHT30;64830;46.910;6.354;2023-03-26T19:02:20;7.61;68.71
76102;SHT30;64830;46.910;6.354;2023-03-26T19:04:48;7.61;68.82
76102;SHT30;64830;46.910;6.354;2023-03-26T19:07:20;7.58;68.77
76102;SHT30;64830;46.910;6.354;2023-03-26T19:09:50;7.54;68.93
76102;SHT30;64830;46.910;6.354;2023-03-26T19:12:30;7.55;69.38
76102;SHT30;64830;46.910;6.354;2023-03-26T19:15:04;7.54;69.12
76102;SHT30;64830;46.910;6.354;2023-03-26T19:17:44;7.51;69.48
76102;SHT30;64830;46.910;6.354;2023-03-26T19:20:26;7.49;69.62
76102;SHT30;64830;46.910;6.354;2023-03-26T19:22:53;7.44;70.37
76102;SHT30;64830;46.910;6.354;2023-03-26T19:25:32;7.42;70.46
76102;SHT30;64830;46.910;6.354;2023-03-26T19:28:01;7.36;70.77
76102;SHT30;64830;46.910;6.354;2023-03-26T19:30:32;7.32;70.70
76102;SHT30;64830;46.910;6.354;2023-03-26T19:33:18;7.27;70.32
76102;SHT30;64830;46.910;6.354;2023-03-26T19:35:50;7.25;70.80
76102;SHT30;64830;46.910;6.354;2023-03-26T19:40:46;7.24;70.90
76102;SHT30;64830;46.910;6.354;2023-03-26T19:43:12;7.20;71.13
76102;SHT30;64830;46.910;6.354;2023-03-26T19:45:38;7.24;71.24
76102;SHT30;64830;46.910;6.354;2023-03-26T19:48:07;7.27;70.98
76102;SHT30;64830;46.910;6.354;2023-03-26T19:50:35;7.31;71.00
76102;SHT30;64830;46.910;6.354;2023-03-26T19:53:22;7.34;71.45
76102;SHT30;64830;46.910;6.354;2023-03-26T19:56:15;7.36;71.83
76102;SHT30;64830;46.910;6.354;2023-03-26T19:58:42;7.36;71.91
76102;SHT30;64830;46.910;6.354;2023-03-26T20:03:44;7.35;72.08
76102;SHT30;64830;46.910;6.354;2023-03-26T20:06:15;7.38;72.16
76102;SHT30;64830;46.910;6.354;2023-03-26T20:08:41;7.34;72.23
76102;SHT30;64830;46.910;6.354;2023-03-26T20:11:15;7.27;72.77
76102;SHT30;64830;46.910;6.354;2023-03-26T20:13:42;7.17;72.49
76102;SHT30;64830;46.910;6.354;2023-03-26T20:18:37;7.15;72.69
76102;SHT30;64830;46.910;6.354;2023-03-26T20:21:12;7.14;73.14
76102;SHT30;64830;46.910;6.354;2023-03-26T20:23:39;7.08;73.52
76102;SHT30;64830;46.910;6.354;2023-03-26T20:26:04;7.07;73.47
76102;SHT30;64830;46.910;6.354;2023-03-26T20:28:30;7.06;73.24
76102;SHT30;64830;46.910;6.354;2023-03-26T20:30:55;7.01;73.18
76102;SHT30;64830;46.910;6.354;2023-03-26T20:33:23;7.03;73.19
76102;SHT30;64830;46.910;6.354;2023-03-26T20:35:51;7.01;73.24
76102;SHT30;64830;46.910;6.354;2023-03-26T20:38:16;6.99;73.39
76102;SHT30;64830;46.910;6.354;2023-03-26T20:40:42;7.00;73.76
76102;SHT30;64830;46.910;6.354;2023-03-26T20:43:13;6.87;74.06
76102;SHT30;64830;46.910;6.354;2023-03-26T20:45:40;6.75;74.79
76102;SHT30;64830;46.910;6.354;2023-03-26T20:48:07;6.61;75.69
76102;SHT30;64830;46.910;6.354;2023-03-26T20:50:35;6.41;75.48
76102;SHT30;64830;46.910;6.354;2023-03-26T20:53:00;6.30;76.45
76102;SHT30;64830;46.910;6.354;2023-03-26T20:55:26;6.13;75.56
76102;SHT30;64830;46.910;6.354;2023-03-26T20:57:52;6.07;75.19
76102;SHT30;64830;46.910;6.354;2023-03-26T21:00:19;6.06;76.90
76102;SHT30;64830;46.910;6.354;2023-03-26T21:02:54;6.07;76.00
76102;SHT30;64830;46.910;6.354;2023-03-26T21:05:22;6.09;77.54
76102;SHT30;64830;46.910;6.354;2023-03-26T21:07:56;6.00;76.42
76102;SHT30;64830;46.910;6.354;2023-03-26T21:10:22;6.03;76.42
76102;SHT30;64830;46.910;6.354;2023-03-26T21:12:59;6.05;75.99
76102;SHT30;64830;46.910;6.354;2023-03-26T21:15:27;6.02;76.02
76102;SHT30;64830;46.910;6.354;2023-03-26T21:17:53;6.03;75.92
76102;SHT30;64830;46.910;6.354;2023-03-26T21:20:20;5.99;76.48
76102;SHT30;64830;46.910;6.354;2023-03-26T21:30:48;5.92;75.62
76102;SHT30;64830;46.910;6.354;2023-03-26T21:33:15;5.89;76.17
76102;SHT30;64830;46.910;6.354;2023-03-26T21:35:42;5.90;76.17
76102;SHT30;64830;46.910;6.354;2023-03-26T21:38:09;5.93;75.81
76102;SHT30;64830;46.910;6.354;2023-03-26T21:40:35;5.95;76.65
76102;SHT30;64830;46.910;6.354;2023-03-26T21:43:02;5.99;76.70
76102;SHT30;64830;46.910;6.354;2023-03-26T21:45:28;5.99;76.08
76102;SHT30;64830;46.910;6.354;2023-03-26T21:47:54;5.99;76.28
76102;SHT30;64830;46.910;6.354;2023-03-26T21:50:20;5.99;75.85
76102;SHT30;64830;46.910;6.354;2023-03-26T21:52:48;6.05;76.44
76102;SHT30;64830;46.910;6.354;2023-03-26T21:55:15;6.10;76.54
76102;SHT30;64830;46.910;6.354;2023-03-26T22:00:18;6.11;76.29
76102;SHT30;64830;46.910;6.354;2023-03-26T22:06:05;6.11;75.88